Terminal Aerodrome Forecast
Issued by NWS Lake Charles, LA

Home | Current Version | Previous Version | Text Only | Print | Product List | Glossary On
Versions: 1 2 3 4 5 6 7 8 9 10 11 12 13
833
FTUS44 KLCH 111120
TAFLFT
TAF
KLFT 111120Z 1112/1212 24007KT P6SM SCT250
     FM121000 33010KT P6SM FEW250=

USA.gov is the U.S. government's official web portal to all federal, state and local government web resources and services.